Terminal Aerodrome Forecast
Issued by NWS Jackson, MS

Home | Current Version | Previous Version | Text Only | Print | Product List | Glossary On
Versions: 1 2 3 4 5 6 7 8 9 10 11 12 13
000
FTUS44 KJAN 271726
TAFGWO
TAF
KGWO 271726Z 2718/2818 07004KT P6SM SCT060
     FM281100 00000KT 4SM HZ BR SKC
     FM281400 06006KT P6SM SKC=

USA.gov is the U.S. government's official web portal to all federal, state and local government web resources and services.